createdAt,value
2023-02-07T00:00:21.515Z,1043.69
2023-02-07T00:01:21.544Z,1043.69
2023-02-07T00:02:21.648Z,1043.69
2023-02-07T00:03:21.596Z,1043.69
2023-02-07T00:04:21.520Z,1043.69
2023-02-07T00:05:21.513Z,1043.69
2023-02-07T00:06:21.538Z,1043.69
2023-02-07T00:07:21.531Z,1043.69
2023-02-07T00:08:21.512Z,1043.69
2023-02-07T00:09:21.514Z,1043.69
2023-02-07T00:10:21.528Z,1043.69
2023-02-07T00:11:21.630Z,1043.69
2023-02-07T00:12:21.514Z,1043.69
2023-02-07T00:13:21.532Z,1043.69
2023-02-07T00:14:21.542Z,1043.69
2023-02-07T00:15:21.517Z,1043.69
2023-02-07T00:16:21.575Z,1043.69
2023-02-07T00:17:21.515Z,1043.69
2023-02-07T00:18:21.517Z,1043.69
2023-02-07T00:19:21.509Z,1043.69
2023-02-07T00:20:21.514Z,1043.69
2023-02-07T00:21:21.554Z,1043.69
2023-02-07T00:22:21.512Z,1043.69
2023-02-07T00:23:21.518Z,1043.69
2023-02-07T00:24:21.510Z,1043.69
2023-02-07T00:25:21.514Z,1043.69
2023-02-07T00:26:21.544Z,1043.69
2023-02-07T00:27:21.535Z,1043.69
2023-02-07T00:28:21.677Z,1043.69
2023-02-07T00:29:21.538Z,1043.69
2023-02-07T00:30:21.572Z,1043.69
2023-02-07T00:31:21.662Z,1043.69
2023-02-07T00:32:21.520Z,1043.69
2023-02-07T00:33:21.511Z,1043.69
2023-02-07T00:34:21.536Z,1044.24
2023-02-07T00:35:21.543Z,1044.24
2023-02-07T00:36:21.539Z,1044.33
2023-02-07T00:37:21.537Z,1044.32
2023-02-07T00:38:21.526Z,1044.3
2023-02-07T00:39:21.528Z,1044.3
2023-02-07T00:40:21.532Z,1044.26
2023-02-07T00:41:21.559Z,1044.24
2023-02-07T00:42:21.533Z,1044.28
2023-02-07T00:43:29.250Z,1044.21
2023-02-07T00:44:21.528Z,1044.21
2023-02-07T00:45:21.540Z,1044.21
2023-02-07T00:46:21.595Z,1044.21
2023-02-07T00:47:21.524Z,1044.21
2023-02-07T00:48:21.544Z,1044.21
2023-02-07T00:49:21.536Z,1044.21
2023-02-07T00:50:21.508Z,1044.21
2023-02-07T00:51:21.530Z,1044.21
2023-02-07T00:52:21.551Z,1044.21
2023-02-07T00:53:21.515Z,1044.21
2023-02-07T00:54:21.516Z,1044.21
2023-02-07T00:55:21.534Z,1044.21
2023-02-07T00:56:21.532Z,1044.21
2023-02-07T00:57:21.515Z,1044.21
2023-02-07T00:58:21.559Z,1044.21
2023-02-07T00:59:21.531Z,1044.21
2023-02-07T01:00:21.529Z,1044.21
2023-02-07T01:01:21.608Z,1044.21
2023-02-07T01:02:21.585Z,1044.34
2023-02-07T01:03:21.553Z,1044.37
2023-02-07T01:04:21.528Z,1044.37
2023-02-07T01:05:21.553Z,1044.37
2023-02-07T01:06:21.562Z,1044.37
2023-02-07T01:07:21.521Z,1044.37
2023-02-07T01:08:21.558Z,1044.37
2023-02-07T01:09:21.526Z,1044.37
2023-02-07T01:10:21.529Z,1044.37
2023-02-07T01:11:21.538Z,1044.37
2023-02-07T01:12:21.522Z,1044.37
2023-02-07T01:13:21.546Z,1044.37
2023-02-07T01:14:21.517Z,1044.37
2023-02-07T01:15:21.521Z,1044.37
2023-02-07T01:16:21.539Z,1044.37
2023-02-07T01:17:21.520Z,1044.28
2023-02-07T01:18:21.518Z,1044.34
2023-02-07T01:19:21.521Z,1044.34
2023-02-07T01:20:21.521Z,1044.34
2023-02-07T01:21:21.546Z,1044.44
2023-02-07T01:22:21.527Z,1044.44
2023-02-07T01:23:21.525Z,1044.44
2023-02-07T01:24:21.518Z,1044.44
2023-02-07T01:25:21.519Z,1044.44
2023-02-07T01:26:21.532Z,1044.44
2023-02-07T01:27:21.520Z,1044.44
2023-02-07T01:28:21.562Z,1044.44
2023-02-07T01:29:21.515Z,1044.44
2023-02-07T01:30:21.540Z,1044.44
2023-02-07T01:31:21.686Z,1044.44
2023-02-07T01:32:21.515Z,1044.44
2023-02-07T01:33:21.530Z,1044.44
2023-02-07T01:34:21.528Z,1044.44
2023-02-07T01:35:21.515Z,1044.44
2023-02-07T01:36:21.543Z,1044.44
2023-02-07T01:37:21.516Z,1044.44
2023-02-07T01:38:21.514Z,1044.44
2023-02-07T01:39:21.518Z,1044.44
2023-02-07T01:40:21.518Z,1044.44
2023-02-07T01:41:21.549Z,1044.44
2023-02-07T01:42:21.523Z,1044.44
2023-02-07T01:43:21.574Z,1044.44
2023-02-07T01:44:21.525Z,1044.44
2023-02-07T01:45:21.514Z,1044.44
2023-02-07T01:46:21.592Z,1044.44
2023-02-07T01:47:21.520Z,1044.44
2023-02-07T01:48:21.513Z,1044.44
2023-02-07T01:49:21.533Z,1044.44
2023-02-07T01:50:21.526Z,1044.44
2023-02-07T01:51:21.534Z,1044.44
2023-02-07T01:52:21.536Z,1044.44
2023-02-07T01:53:21.528Z,1044.44
2023-02-07T01:54:21.515Z,1044.44
2023-02-07T01:55:21.536Z,1044.44
2023-02-07T01:56:31.225Z,1044.44
2023-02-07T01:57:21.528Z,1044.44
2023-02-07T01:58:21.527Z,1044.44
2023-02-07T01:59:21.528Z,1044.44
2023-02-07T02:00:21.522Z,1044.44
2023-02-07T02:01:21.562Z,1044.44
2023-02-07T02:02:21.564Z,1044.44
2023-02-07T02:03:21.517Z,1044.44
2023-02-07T02:04:21.521Z,1044.44
2023-02-07T02:05:21.525Z,1044.44
2023-02-07T02:06:21.535Z,1044.44
2023-02-07T02:07:21.528Z,1044.44
2023-02-07T02:08:21.536Z,1044.44
2023-02-07T02:09:21.544Z,1044.44
2023-02-07T02:10:21.516Z,1044.44
2023-02-07T02:11:21.539Z,1044.44
2023-02-07T02:12:21.525Z,1044.44
2023-02-07T02:13:21.530Z,1044.44
2023-02-07T02:14:21.533Z,1044.44
2023-02-07T02:15:21.514Z,1044.44
2023-02-07T02:16:21.573Z,1044.44
2023-02-07T02:17:21.518Z,1044.44
2023-02-07T02:18:21.520Z,1044.44
2023-02-07T02:19:21.528Z,1044.44
2023-02-07T02:20:21.524Z,1044.44
2023-02-07T02:21:21.532Z,1044.44
2023-02-07T02:22:21.531Z,1044.44
2023-02-07T02:23:21.517Z,1044.44
2023-02-07T02:24:21.519Z,1044.44
2023-02-07T02:25:21.530Z,1044.44
2023-02-07T02:26:21.532Z,1044.44
2023-02-07T02:27:21.512Z,1044.44
2023-02-07T02:28:21.618Z,1044.44
2023-02-07T02:29:21.516Z,1044.38
2023-02-07T02:30:21.545Z,1044.35
2023-02-07T02:31:21.568Z,1044.35
2023-02-07T02:32:21.518Z,1044.35
2023-02-07T02:33:21.522Z,1044.35
2023-02-07T02:34:21.517Z,1044.35
2023-02-07T02:35:21.511Z,1044.35
2023-02-07T02:36:21.537Z,1044.35
2023-02-07T02:37:21.517Z,1044.35
2023-02-07T02:38:21.515Z,1044.35
2023-02-07T02:39:21.520Z,1044.35
2023-02-07T02:40:21.509Z,1044.35
2023-02-07T02:41:21.560Z,1044.35
2023-02-07T02:42:21.511Z,1044.35
2023-02-07T02:43:21.524Z,1044.35
2023-02-07T02:44:21.519Z,1044.35
2023-02-07T02:45:21.522Z,1044.35
2023-02-07T02:46:21.581Z,1044.35
2023-02-07T02:47:21.516Z,1044.35
2023-02-07T02:48:21.516Z,1044.35
2023-02-07T02:49:21.519Z,1044.35
2023-02-07T02:50:21.516Z,1044.35
2023-02-07T02:51:21.526Z,1044.35
2023-02-07T02:52:21.520Z,1044.35
2023-02-07T02:53:21.510Z,1044.35
2023-02-07T02:54:21.524Z,1044.35
2023-02-07T02:55:21.516Z,1044.35
2023-02-07T02:56:21.559Z,1044.35
2023-02-07T02:57:21.516Z,1044.35
2023-02-07T02:58:21.544Z,1044.35
2023-02-07T02:59:21.512Z,1044.35
2023-02-07T03:00:21.512Z,1044.35
2023-02-07T03:01:21.556Z,1044.35
2023-02-07T03:02:21.543Z,1044.04
2023-02-07T03:03:21.523Z,1044.03
2023-02-07T03:04:21.539Z,1044.06
2023-02-07T03:05:21.572Z,1044.08
2023-02-07T03:06:21.542Z,1044.13
2023-02-07T03:07:21.537Z,1044.13
2023-02-07T03:08:21.530Z,1044.12
2023-02-07T03:09:21.537Z,1044.17
2023-02-07T03:10:21.532Z,1044.17
2023-02-07T03:11:21.527Z,1044.16
2023-02-07T03:12:21.537Z,1044.14
2023-02-07T03:13:21.552Z,1044.13
2023-02-07T03:14:21.534Z,1044.16
2023-02-07T03:15:21.545Z,1044.15
2023-02-07T03:16:21.672Z,1044.12
2023-02-07T03:17:21.537Z,1044.1
2023-02-07T03:18:21.540Z,1044.09
2023-02-07T03:19:21.532Z,1044.1
2023-02-07T03:20:21.534Z,1044.1
2023-02-07T03:21:21.552Z,1044.12
2023-02-07T03:22:21.531Z,1044.08
2023-02-07T03:23:21.543Z,1044.1
2023-02-07T03:24:21.533Z,1044.1
2023-02-07T03:25:21.510Z,1044.1
2023-02-07T03:26:21.538Z,1044.1
2023-02-07T03:27:21.526Z,1044.1
2023-02-07T03:28:21.669Z,1044.1
2023-02-07T03:29:21.519Z,1044.1
2023-02-07T03:30:21.687Z,1044.1
2023-02-07T03:31:21.571Z,1044.1
2023-02-07T03:32:21.529Z,1044.1
2023-02-07T03:33:21.570Z,1044.1
2023-02-07T03:34:21.512Z,1044.1
2023-02-07T03:35:21.513Z,1044.1
2023-02-07T03:36:21.576Z,1044.1
2023-02-07T03:37:21.508Z,1044.1
2023-02-07T03:38:21.524Z,1044.1
2023-02-07T03:39:21.514Z,1044.1
2023-02-07T03:40:21.526Z,1044.1
2023-02-07T03:41:21.535Z,1044.1
2023-02-07T03:42:21.509Z,1044.1
2023-02-07T03:43:21.550Z,1044.1
2023-02-07T03:44:21.516Z,1044.1
2023-02-07T03:45:21.518Z,1044.1
2023-02-07T03:46:21.592Z,1044.1
2023-02-07T03:47:21.509Z,1044.1
2023-02-07T03:48:21.514Z,1044.1
2023-02-07T03:49:21.521Z,1044.1
2023-02-07T03:50:21.525Z,1044.1
2023-02-07T03:51:21.536Z,1044.1
2023-02-07T03:52:21.514Z,1044.1
2023-02-07T03:53:21.517Z,1044.1
2023-02-07T03:54:21.523Z,1044.1
2023-02-07T03:55:21.511Z,1044.1
2023-02-07T03:56:21.534Z,1044.1
2023-02-07T03:57:21.517Z,1044.1
2023-02-07T03:58:21.603Z,1044.1
2023-02-07T03:59:21.519Z,1044.1
2023-02-07T04:00:21.565Z,1044.1
2023-02-07T04:01:21.595Z,1044.1
2023-02-07T04:02:21.568Z,1044.1
2023-02-07T04:03:21.520Z,1043.65
2023-02-07T04:04:21.580Z,1043.66
2023-02-07T04:05:21.605Z,1043.72
2023-02-07T04:06:21.538Z,1043.76
2023-02-07T04:07:21.518Z,1043.77
2023-02-07T04:08:21.530Z,1043.81
2023-02-07T04:09:21.519Z,1043.82
2023-02-07T04:10:21.521Z,1043.84
2023-02-07T04:11:21.542Z,1043.83
2023-02-07T04:12:21.516Z,1043.85
2023-02-07T04:13:21.549Z,1043.82
2023-02-07T04:14:21.549Z,1043.81
2023-02-07T04:15:21.526Z,1043.83
2023-02-07T04:16:21.652Z,1043.86
2023-02-07T04:17:21.532Z,1043.87
2023-02-07T04:18:21.525Z,1043.94
2023-02-07T04:19:21.537Z,1043.94
2023-02-07T04:20:21.517Z,1043.94
2023-02-07T04:21:21.554Z,1043.96
2023-02-07T04:22:21.540Z,1044.04
2023-02-07T04:23:21.530Z,1044.09
2023-02-07T04:24:21.536Z,1044.08
2023-02-07T04:25:21.559Z,1044.05
2023-02-07T04:26:21.538Z,1044.05
2023-02-07T04:27:21.538Z,1043.98
2023-02-07T04:28:21.593Z,1044.04
2023-02-07T04:29:21.531Z,1044.04
2023-02-07T04:30:21.589Z,1044.04
2023-02-07T04:31:21.537Z,1044.04
2023-02-07T04:32:21.510Z,1044.04
2023-02-07T04:33:21.510Z,1044.04
2023-02-07T04:34:21.515Z,1044.04
2023-02-07T04:35:21.522Z,1044.04
2023-02-07T04:36:21.526Z,1044.04
2023-02-07T04:37:21.518Z,1044.04
2023-02-07T04:38:21.531Z,1044.07
2023-02-07T04:39:21.523Z,1044.08
2023-02-07T04:40:21.529Z,1044.07
2023-02-07T04:41:21.687Z,1044.07
2023-02-07T04:42:21.512Z,1044.07
2023-02-07T04:43:21.534Z,1044.14
2023-02-07T04:44:21.537Z,1044.15
2023-02-07T04:45:21.545Z,1044.18
2023-02-07T04:46:21.539Z,1044.18
2023-02-07T04:47:21.531Z,1044.08
2023-02-07T04:48:21.528Z,1044.08
2023-02-07T04:49:21.542Z,1044.08
2023-02-07T04:50:21.538Z,1044.04
2023-02-07T04:51:21.530Z,1044.04
2023-02-07T04:52:21.527Z,1044.04
2023-02-07T04:53:21.526Z,1044.04
2023-02-07T04:54:21.542Z,1044.06
2023-02-07T04:55:21.533Z,1044.05
2023-02-07T04:56:21.544Z,1044.04
2023-02-07T04:57:21.515Z,1044.11
2023-02-07T04:58:21.538Z,1044.08
2023-02-07T04:59:21.592Z,1044.15
2023-02-07T05:00:21.545Z,1044.15
2023-02-07T05:01:21.667Z,1044.14
2023-02-07T05:02:21.528Z,1044.14
2023-02-07T05:03:21.525Z,1044.16
2023-02-07T05:04:21.562Z,1044.17
2023-02-07T05:05:21.511Z,1044.18
2023-02-07T05:06:21.525Z,1044.23
2023-02-07T05:07:21.525Z,1044.27
2023-02-07T05:08:21.521Z,1044.32
2023-02-07T05:09:21.524Z,1044.36
2023-02-07T05:10:21.522Z,1044.34
2023-02-07T05:11:21.523Z,1044.39
2023-02-07T05:12:21.521Z,1044.37
2023-02-07T05:13:21.538Z,1044.31
2023-02-07T05:14:21.523Z,1044.31
2023-02-07T05:15:21.515Z,1044.33
2023-02-07T05:16:21.613Z,1044.35
2023-02-07T05:17:21.513Z,1044.29
2023-02-07T05:18:21.534Z,1044.33
2023-02-07T05:19:21.519Z,1044.32
2023-02-07T05:20:21.595Z,1044.39
2023-02-07T05:21:21.535Z,1044.38
2023-02-07T05:22:21.526Z,1044.45
2023-02-07T05:23:21.528Z,1044.41
2023-02-07T05:24:21.524Z,1044.41
2023-02-07T05:25:21.516Z,1044.46
2023-02-07T05:26:21.549Z,1044.56
2023-02-07T05:27:21.515Z,1044.56
2023-02-07T05:28:21.605Z,1044.59
2023-02-07T05:29:21.517Z,1044.62
2023-02-07T05:30:21.551Z,1044.64
2023-02-07T05:31:21.655Z,1044.63
2023-02-07T05:32:21.537Z,1044.64
2023-02-07T05:33:21.537Z,1044.62
2023-02-07T05:34:21.535Z,1044.65
2023-02-07T05:35:21.579Z,1044.62
2023-02-07T05:36:21.553Z,1044.62
2023-02-07T05:37:21.544Z,1044.64
2023-02-07T05:38:21.537Z,1044.64
2023-02-07T05:39:21.553Z,1044.6
2023-02-07T05:40:21.523Z,1044.59
2023-02-07T05:41:21.554Z,1044.63
2023-02-07T05:42:21.535Z,1044.62
2023-02-07T05:43:21.543Z,1044.63
2023-02-07T05:44:21.535Z,1044.56
2023-02-07T05:45:21.528Z,1044.54
2023-02-07T05:46:21.596Z,1044.52
2023-02-07T05:47:21.513Z,1044.52
2023-02-07T05:48:21.548Z,1044.46
2023-02-07T05:49:21.534Z,1044.41
2023-02-07T05:50:21.514Z,1044.41
2023-02-07T05:51:21.555Z,1044.38
2023-02-07T05:52:21.534Z,1044.35
2023-02-07T05:53:21.523Z,1044.35
2023-02-07T05:54:21.531Z,1044.39
2023-02-07T05:55:21.528Z,1044.31
2023-02-07T05:56:21.549Z,1044.29
2023-02-07T05:57:21.526Z,1044.26
2023-02-07T05:58:21.542Z,1044.31
2023-02-07T05:59:21.529Z,1044.29
2023-02-07T06:00:21.515Z,1044.24
2023-02-07T06:01:21.536Z,1044.26
2023-02-07T06:02:21.571Z,1044.29
2023-02-07T06:03:21.557Z,1044.31
2023-02-07T06:04:21.533Z,1044.3
2023-02-07T06:05:21.539Z,1044.29
2023-02-07T06:06:21.521Z,1044.33
2023-02-07T06:07:21.546Z,1044.38
2023-02-07T06:08:21.522Z,1044.36
2023-02-07T06:09:21.528Z,1044.33
2023-02-07T06:10:21.515Z,1044.34
2023-02-07T06:11:21.536Z,1044.33
2023-02-07T06:12:21.525Z,1044.38
2023-02-07T06:13:21.538Z,1044.37
2023-02-07T06:14:21.533Z,1044.4
2023-02-07T06:15:21.517Z,1044.38
2023-02-07T06:16:21.529Z,1044.33
2023-02-07T06:17:21.514Z,1044.31
2023-02-07T06:18:21.505Z,1044.3
2023-02-07T06:19:21.518Z,1044.26
2023-02-07T06:20:21.518Z,1044.28
2023-02-07T06:21:21.516Z,1044.22
2023-02-07T06:22:21.521Z,1044.22
2023-02-07T06:23:21.558Z,1044.14
2023-02-07T06:24:21.509Z,1044.12
2023-02-07T06:25:21.665Z,1044.1
2023-02-07T06:26:21.519Z,1044.04
2023-02-07T06:27:21.505Z,1044.05
2023-02-07T06:28:21.596Z,1044.05
2023-02-07T06:29:21.508Z,1044.07
2023-02-07T06:30:21.512Z,1044.08
2023-02-07T06:31:21.582Z,1044.03
2023-02-07T06:32:21.509Z,1044.07
2023-02-07T06:33:21.519Z,1044.08
2023-02-07T06:34:21.509Z,1044.06
2023-02-07T06:35:21.514Z,1044.07
2023-02-07T06:36:21.519Z,1044.09
2023-02-07T06:37:21.516Z,1044.06
2023-02-07T06:38:21.516Z,1044.05
2023-02-07T06:39:21.517Z,1044.05
2023-02-07T06:40:21.513Z,1044.07
2023-02-07T06:41:21.534Z,1044.1
2023-02-07T06:42:21.509Z,1044.05
2023-02-07T06:43:21.529Z,1044.08
2023-02-07T06:44:21.534Z,1044.15
2023-02-07T06:45:21.520Z,1044.1
2023-02-07T06:46:21.618Z,1044.06
2023-02-07T06:47:21.532Z,1044.07
2023-02-07T06:48:21.532Z,1044.07
2023-02-07T06:49:21.547Z,1044.08
2023-02-07T06:50:21.513Z,1044.1
2023-02-07T06:51:21.542Z,1044.13
2023-02-07T06:52:21.540Z,1044.08
2023-02-07T06:53:21.523Z,1044.11
2023-02-07T06:54:21.582Z,1044.16
2023-02-07T06:55:21.524Z,1044.14
2023-02-07T06:56:21.551Z,1044.15
2023-02-07T06:57:21.547Z,1044.12
2023-02-07T06:58:21.524Z,1044.17
2023-02-07T06:59:21.526Z,1044.17
2023-02-07T07:00:21.515Z,1044.22
2023-02-07T07:01:21.569Z,1044.31
2023-02-07T07:02:21.527Z,1044.29
2023-02-07T07:03:21.533Z,1044.34
2023-02-07T07:04:21.534Z,1044.37
2023-02-07T07:05:21.533Z,1044.35
2023-02-07T07:06:21.551Z,1044.4
2023-02-07T07:07:21.540Z,1044.42
2023-02-07T07:08:21.525Z,1044.4
2023-02-07T07:09:21.532Z,1044.35
2023-02-07T07:10:21.596Z,1044.35
2023-02-07T07:11:21.531Z,1044.34
2023-02-07T07:12:21.540Z,1044.33
2023-02-07T07:13:21.557Z,1044.36
2023-02-07T07:14:21.560Z,1044.35
2023-02-07T07:15:21.530Z,1044.33
2023-02-07T07:16:21.640Z,1044.31
2023-02-07T07:17:21.524Z,1044.29
2023-02-07T07:18:21.531Z,1044.28
2023-02-07T07:19:21.538Z,1044.22
2023-02-07T07:20:21.540Z,1044.19
2023-02-07T07:21:21.538Z,1044.14
2023-02-07T07:22:21.544Z,1044.17
2023-02-07T07:23:21.546Z,1044.12
2023-02-07T07:24:21.524Z,1044.06
2023-02-07T07:25:21.584Z,1044.1
2023-02-07T07:26:21.541Z,1044.01
2023-02-07T07:27:21.533Z,1043.99
2023-02-07T07:28:21.548Z,1043.99
2023-02-07T07:29:21.521Z,1043.9
2023-02-07T07:30:21.569Z,1043.91
2023-02-07T07:31:21.580Z,1043.95
2023-02-07T07:33:21.526Z,1043.92
2023-02-07T07:34:21.519Z,1043.96
2023-02-07T07:35:21.524Z,1043.88
2023-02-07T07:36:21.527Z,1043.89
2023-02-07T07:37:21.520Z,1043.9
2023-02-07T07:38:21.508Z,1043.91
2023-02-07T07:39:21.537Z,1043.89
2023-02-07T07:40:21.534Z,1043.94
2023-02-07T07:41:21.539Z,1043.9
2023-02-07T07:42:21.523Z,1043.87
2023-02-07T07:43:21.523Z,1043.85
2023-02-07T07:44:21.524Z,1043.89
2023-02-07T07:45:21.514Z,1043.9
2023-02-07T07:46:21.557Z,1043.87
2023-02-07T07:47:21.512Z,1043.87
2023-02-07T07:48:21.586Z,1043.91
2023-02-07T07:49:21.563Z,1043.89
2023-02-07T07:50:21.544Z,1043.9
2023-02-07T07:51:21.541Z,1043.9
2023-02-07T07:52:21.512Z,1043.92
2023-02-07T07:53:21.514Z,1043.86
2023-02-07T07:54:21.524Z,1043.95
2023-02-07T07:55:21.513Z,1043.96
2023-02-07T07:56:21.536Z,1043.95
2023-02-07T07:57:21.528Z,1043.98
2023-02-07T07:58:21.544Z,1043.97
2023-02-07T07:59:24.193Z,1043.98
2023-02-07T08:00:21.528Z,1043.96
2023-02-07T08:01:21.549Z,1043.94
2023-02-07T08:02:21.627Z,1044
2023-02-07T08:03:21.515Z,1043.96
2023-02-07T08:04:21.521Z,1043.96
2023-02-07T08:05:21.557Z,1043.89
2023-02-07T08:06:21.540Z,1043.89
2023-02-07T08:07:21.531Z,1043.86
2023-02-07T08:08:21.613Z,1043.89
2023-02-07T08:09:21.529Z,1043.92
2023-02-07T08:10:21.525Z,1043.93
2023-02-07T08:11:21.539Z,1043.92
2023-02-07T08:12:21.529Z,1043.93
2023-02-07T08:13:21.612Z,1043.9
2023-02-07T08:14:21.540Z,1043.91
2023-02-07T08:15:21.512Z,1043.84
2023-02-07T08:16:21.537Z,1043.87
2023-02-07T08:17:21.519Z,1043.85
2023-02-07T08:18:21.532Z,1043.86
2023-02-07T08:19:21.530Z,1043.92
2023-02-07T08:20:21.524Z,1043.9
2023-02-07T08:21:21.544Z,1043.94
2023-02-07T08:22:21.529Z,1043.95
2023-02-07T08:23:21.529Z,1043.93
2023-02-07T08:24:21.523Z,1043.93
2023-02-07T08:25:21.538Z,1043.92
2023-02-07T08:26:21.543Z,1043.94
2023-02-07T08:27:21.529Z,1043.94
2023-02-07T08:28:21.604Z,1043.94
2023-02-07T08:29:21.513Z,1043.95
2023-02-07T08:30:21.543Z,1043.94
2023-02-07T08:31:21.652Z,1043.97
2023-02-07T08:32:21.538Z,1043.96
2023-02-07T08:33:21.529Z,1043.88
2023-02-07T08:34:21.537Z,1043.92
2023-02-07T08:35:21.533Z,1043.86
2023-02-07T08:36:21.544Z,1043.81
2023-02-07T08:37:21.508Z,1043.82
2023-02-07T08:38:21.508Z,1043.83
2023-02-07T08:39:21.530Z,1043.84
2023-02-07T08:40:21.554Z,1043.82
2023-02-07T08:41:21.538Z,1043.75
2023-02-07T08:42:21.529Z,1043.81
2023-02-07T08:43:21.545Z,1043.82
2023-02-07T08:44:21.519Z,1043.8
2023-02-07T08:45:21.543Z,1043.74
2023-02-07T08:46:21.571Z,1043.75
2023-02-07T08:47:21.509Z,1043.76
2023-02-07T08:48:21.519Z,1043.73
2023-02-07T08:49:21.516Z,1043.75
2023-02-07T08:50:21.526Z,1043.74
2023-02-07T08:51:21.527Z,1043.7
2023-02-07T08:52:21.512Z,1043.68
2023-02-07T08:53:21.526Z,1043.67
2023-02-07T08:54:21.509Z,1043.65
2023-02-07T08:55:21.519Z,1043.65
2023-02-07T08:56:21.527Z,1043.65
2023-02-07T08:57:21.512Z,1043.64
2023-02-07T08:58:21.519Z,1043.58
2023-02-07T08:59:21.518Z,1043.57
2023-02-07T09:00:21.521Z,1043.6
2023-02-07T09:01:21.550Z,1043.53
2023-02-07T09:02:21.578Z,1043.53
2023-02-07T09:03:21.514Z,1043.56
2023-02-07T09:04:21.520Z,1043.5
2023-02-07T09:05:21.521Z,1043.51
2023-02-07T09:06:21.545Z,1043.51
2023-02-07T09:07:21.509Z,1043.53
2023-02-07T09:08:21.511Z,1043.48
2023-02-07T09:09:21.530Z,1043.53
2023-02-07T09:10:21.526Z,1043.51
2023-02-07T09:11:21.585Z,1043.49
2023-02-07T09:12:21.528Z,1043.42
2023-02-07T09:13:21.537Z,1043.44
2023-02-07T09:14:21.521Z,1043.48
2023-02-07T09:15:21.537Z,1043.41
2023-02-07T09:16:21.554Z,1043.48
2023-02-07T09:17:21.537Z,1043.45
2023-02-07T09:18:21.528Z,1043.46
2023-02-07T09:19:21.542Z,1043.47
2023-02-07T09:20:21.537Z,1043.46
2023-02-07T09:21:21.537Z,1043.45
2023-02-07T09:22:21.535Z,1043.51
2023-02-07T09:23:21.531Z,1043.49
2023-02-07T09:24:21.536Z,1043.53
2023-02-07T09:25:21.514Z,1043.53
2023-02-07T09:26:21.559Z,1043.53
2023-02-07T09:27:21.527Z,1043.48
2023-02-07T09:28:21.639Z,1043.48
2023-02-07T09:29:21.520Z,1043.48
2023-02-07T09:30:21.553Z,1043.47
2023-02-07T09:31:21.723Z,1043.5
2023-02-07T09:32:21.534Z,1043.47
2023-02-07T09:33:21.529Z,1043.51
2023-02-07T09:34:21.522Z,1043.46
2023-02-07T09:35:21.537Z,1043.43
2023-02-07T09:36:21.566Z,1043.45
2023-02-07T09:37:21.536Z,1043.41
2023-02-07T09:38:21.540Z,1043.41
2023-02-07T09:39:21.550Z,1043.42
2023-02-07T09:40:21.604Z,1043.41
2023-02-07T09:41:21.585Z,1043.41
2023-02-07T09:42:21.542Z,1043.35
2023-02-07T09:43:21.750Z,1043.27
2023-02-07T09:44:21.733Z,1043.25
2023-02-07T09:45:21.684Z,1043.23
2023-02-07T09:46:21.561Z,1043.22
2023-02-07T09:47:21.525Z,1043.26
2023-02-07T09:48:21.520Z,1043.3
2023-02-07T09:49:21.543Z,1043.28
2023-02-07T09:50:21.623Z,1043.23
2023-02-07T09:51:21.543Z,1043.23
2023-02-07T09:52:21.546Z,1043.23
2023-02-07T09:53:21.520Z,1043.21
2023-02-07T09:54:21.539Z,1043.26
2023-02-07T09:55:21.553Z,1043.22
2023-02-07T09:56:21.533Z,1043.25
2023-02-07T09:57:21.518Z,1043.21
2023-02-07T09:58:21.555Z,1043.19
2023-02-07T09:59:21.510Z,1043.18
2023-02-07T10:00:21.626Z,1043.17
2023-02-07T10:01:21.577Z,1043.13
2023-02-07T10:02:21.540Z,1043.12
2023-02-07T10:03:21.521Z,1043.15
2023-02-07T10:04:21.515Z,1043.14
2023-02-07T10:05:21.514Z,1043.15
2023-02-07T10:06:22.454Z,1043.15
2023-02-07T10:07:21.515Z,1043.12
2023-02-07T10:08:23.365Z,1043.15
2023-02-07T10:09:21.516Z,1043.13
2023-02-07T10:10:21.614Z,1043.14
2023-02-07T10:11:21.535Z,1043.2
2023-02-07T10:12:21.513Z,1043.2
2023-02-07T10:13:21.520Z,1043.24
2023-02-07T10:14:21.513Z,1043.24
2023-02-07T10:15:21.514Z,1043.29
2023-02-07T10:16:21.529Z,1043.3
2023-02-07T10:17:31.176Z,1043.29
2023-02-07T10:18:21.515Z,1043.26
2023-02-07T10:19:21.511Z,1043.34
2023-02-07T10:20:21.594Z,1043.35
2023-02-07T10:21:21.523Z,1043.31
2023-02-07T10:22:21.523Z,1043.31
2023-02-07T10:23:21.520Z,1043.34
2023-02-07T10:24:21.528Z,1043.3
2023-02-07T10:25:21.557Z,1043.28
2023-02-07T10:26:21.548Z,1043.33
2023-02-07T10:27:21.515Z,1043.27
2023-02-07T10:28:21.561Z,1043.27
2023-02-07T10:29:21.524Z,1043.28
2023-02-07T10:30:21.635Z,1043.28
2023-02-07T10:31:21.683Z,1043.29
2023-02-07T10:32:21.622Z,1043.25
2023-02-07T10:33:21.529Z,1043.24
2023-02-07T10:34:21.543Z,1043.27
2023-02-07T10:35:21.546Z,1043.2
2023-02-07T10:36:21.554Z,1043.16
2023-02-07T10:37:21.522Z,1043.18
2023-02-07T10:38:21.599Z,1043.21
2023-02-07T10:39:21.517Z,1043.24
2023-02-07T10:40:21.521Z,1043.29
2023-02-07T10:41:21.550Z,1043.3
2023-02-07T10:42:21.530Z,1043.35
2023-02-07T10:43:21.543Z,1043.39
2023-02-07T10:44:21.543Z,1043.37
2023-02-07T10:45:21.534Z,1043.31
2023-02-07T10:46:21.578Z,1043.29
2023-02-07T10:47:21.537Z,1043.25
2023-02-07T10:48:21.524Z,1043.23
2023-02-07T10:49:25.081Z,1043.2
2023-02-07T10:50:29.758Z,1043.18
2023-02-07T10:51:21.541Z,1043.2
2023-02-07T10:52:21.520Z,1043.19
2023-02-07T10:53:21.512Z,1043.17
2023-02-07T10:54:21.532Z,1043.12
2023-02-07T10:55:21.527Z,1043.17
2023-02-07T10:56:21.541Z,1043.16
2023-02-07T10:57:21.525Z,1043.22
2023-02-07T10:58:23.561Z,1043.23
2023-02-07T10:59:21.518Z,1043.18
2023-02-07T11:00:21.527Z,1043.19
2023-02-07T11:01:21.597Z,1043.22
2023-02-07T11:02:21.561Z,1043.2
2023-02-07T11:03:21.512Z,1043.19
2023-02-07T11:04:21.513Z,1043.19
2023-02-07T11:05:21.509Z,1043.16
2023-02-07T11:06:21.532Z,1043.15
2023-02-07T11:07:21.543Z,1043.15
2023-02-07T11:08:21.536Z,1043.1
2023-02-07T11:09:21.535Z,1043.13
2023-02-07T11:10:21.538Z,1043.12
2023-02-07T11:11:21.526Z,1043.07
2023-02-07T11:12:21.519Z,1043.11
2023-02-07T11:13:21.520Z,1043.06
2023-02-07T11:14:21.508Z,1043.05
2023-02-07T11:15:21.528Z,1043.02
2023-02-07T11:16:21.559Z,1043.05
2023-02-07T11:17:21.516Z,1042.98
2023-02-07T11:18:21.516Z,1042.94
2023-02-07T11:19:21.507Z,1042.97
2023-02-07T11:20:21.522Z,1042.95
2023-02-07T11:21:21.533Z,1042.99
2023-02-07T11:22:21.548Z,1042.99
2023-02-07T11:23:21.514Z,1043.01
2023-02-07T11:24:21.525Z,1042.99
2023-02-07T11:25:21.552Z,1043.03
2023-02-07T11:26:21.559Z,1043.02
2023-02-07T11:27:21.524Z,1043.02
2023-02-07T11:28:21.794Z,1043.02
2023-02-07T11:29:21.530Z,1043.02
2023-02-07T11:30:21.534Z,1043.03
2023-02-07T11:31:21.582Z,1043.08
2023-02-07T11:32:23.539Z,1043.08
2023-02-07T11:33:21.526Z,1043.08
2023-02-07T11:34:21.538Z,1043.05
2023-02-07T11:35:21.543Z,1043.01
2023-02-07T11:36:21.549Z,1042.99
2023-02-07T11:37:21.528Z,1042.94
2023-02-07T11:38:21.527Z,1042.91
2023-02-07T11:39:21.538Z,1042.93
2023-02-07T11:40:21.562Z,1042.95
2023-02-07T11:41:21.556Z,1042.96
2023-02-07T11:42:21.541Z,1042.97
2023-02-07T11:43:21.538Z,1042.98
2023-02-07T11:44:21.531Z,1042.98
2023-02-07T11:45:21.525Z,1042.99
2023-02-07T11:46:21.574Z,1042.94
2023-02-07T11:47:21.532Z,1042.94
2023-02-07T11:48:21.541Z,1042.93
2023-02-07T11:49:21.532Z,1042.88
2023-02-07T11:50:21.532Z,1042.84
2023-02-07T11:51:21.536Z,1042.81
2023-02-07T11:52:21.531Z,1042.8
2023-02-07T11:53:21.532Z,1042.79
2023-02-07T11:54:21.531Z,1042.81
2023-02-07T11:55:21.530Z,1042.81
2023-02-07T11:56:21.542Z,1042.8
2023-02-07T11:57:21.537Z,1042.77
2023-02-07T11:58:21.526Z,1042.74
2023-02-07T11:59:21.537Z,1042.74
2023-02-07T12:00:21.528Z,1042.69
2023-02-07T12:01:21.544Z,1042.68
2023-02-07T12:02:21.570Z,1042.68
2023-02-07T12:03:21.538Z,1042.61
2023-02-07T12:04:21.534Z,1042.65
2023-02-07T12:05:21.768Z,1042.58
2023-02-07T12:06:21.537Z,1042.55
2023-02-07T12:07:21.542Z,1042.54
2023-02-07T12:08:21.535Z,1042.52
2023-02-07T12:09:21.555Z,1042.53